sensor_id;sensor_type;location;lat;lon;timestamp;temperature;humidity
8979;DHT22;4524;51.364;5.448;2023-01-20T00:01:07;2.50;1.00
8979;DHT22;4524;51.364;5.448;2023-01-20T00:03:39;2.50;1.00
8979;DHT22;4524;51.364;5.448;2023-01-20T00:06:07;2.50;1.00
8979;DHT22;4524;51.364;5.448;2023-01-20T00:08:35;2.50;1.00
8979;DHT22;4524;51.364;5.448;2023-01-20T00:11:04;2.50;99.90
8979;DHT22;4524;51.364;5.448;2023-01-20T00:13:33;2.50;1.00
8979;DHT22;4524;51.364;5.448;2023-01-20T00:16:02;2.50;1.00
8979;DHT22;4524;51.364;5.448;2023-01-20T00:18:30;2.60;1.00
8979;DHT22;4524;51.364;5.448;2023-01-20T00:21:02;2.60;1.00
8979;DHT22;4524;51.364;5.448;2023-01-20T00:23:31;2.50;1.00
8979;DHT22;4524;51.364;5.448;2023-01-20T00:26:03;2.50;99.90
8979;DHT22;4524;51.364;5.448;2023-01-20T00:28:32;2.40;1.00
8979;DHT22;4524;51.364;5.448;2023-01-20T00:31:09;2.40;1.00
8979;DHT22;4524;51.364;5.448;2023-01-20T00:33:37;2.30;1.00
8979;DHT22;4524;51.364;5.448;2023-01-20T00:36:07;2.30;1.00
8979;DHT22;4524;51.364;5.448;2023-01-20T00:38:35;2.20;1.00
8979;DHT22;4524;51.364;5.448;2023-01-20T00:41:04;2.30;1.00
8979;DHT22;4524;51.364;5.448;2023-01-20T00:43:32;2.40;1.00
8979;DHT22;4524;51.364;5.448;2023-01-20T00:46:00;2.40;1.00
8979;DHT22;4524;51.364;5.448;2023-01-20T00:48:28;2.50;1.00
8979;DHT22;4524;51.364;5.448;2023-01-20T00:50:57;2.60;1.00
8979;DHT22;4524;51.364;5.448;2023-01-20T00:53:26;2.60;1.00
8979;DHT22;4524;51.364;5.448;2023-01-20T00:55:54;2.60;1.00
8979;DHT22;4524;51.364;5.448;2023-01-20T00:58:22;2.60;1.00
8979;DHT22;4524;51.364;5.448;2023-01-20T01:00:51;2.70;1.00
8979;DHT22;4524;51.364;5.448;2023-01-20T01:03:21;2.70;99.90
8979;DHT22;4524;51.364;5.448;2023-01-20T01:05:49;2.70;99.90
8979;DHT22;4524;51.364;5.448;2023-01-20T01:08:18;2.60;99.90
8979;DHT22;4524;51.364;5.448;2023-01-20T01:10:47;2.60;1.00
8979;DHT22;4524;51.364;5.448;2023-01-20T01:13:15;2.60;99.90
8979;DHT22;4524;51.364;5.448;2023-01-20T01:15:47;2.60;1.00
8979;DHT22;4524;51.364;5.448;2023-01-20T01:18:16;2.70;99.90
8979;DHT22;4524;51.364;5.448;2023-01-20T01:20:44;2.60;99.90
8979;DHT22;4524;51.364;5.448;2023-01-20T01:23:12;2.60;1.00
8979;DHT22;4524;51.364;5.448;2023-01-20T01:25:40;2.50;1.00
8979;DHT22;4524;51.364;5.448;2023-01-20T01:28:10;2.50;1.00
8979;DHT22;4524;51.364;5.448;2023-01-20T01:30:38;2.50;1.00
8979;DHT22;4524;51.364;5.448;2023-01-20T01:33:06;2.60;1.00
8979;DHT22;4524;51.364;5.448;2023-01-20T01:35:34;2.50;1.00
8979;DHT22;4524;51.364;5.448;2023-01-20T01:38:02;2.50;1.00
8979;DHT22;4524;51.364;5.448;2023-01-20T01:40:30;2.60;1.00
8979;DHT22;4524;51.364;5.448;2023-01-20T01:42:58;2.60;1.00
8979;DHT22;4524;51.364;5.448;2023-01-20T01:45:29;2.60;99.90
8979;DHT22;4524;51.364;5.448;2023-01-20T01:48:01;2.60;1.00
8979;DHT22;4524;51.364;5.448;2023-01-20T01:50:35;2.50;1.00
8979;DHT22;4524;51.364;5.448;2023-01-20T01:53:05;2.50;1.00
8979;DHT22;4524;51.364;5.448;2023-01-20T01:55:37;2.50;1.00
8979;DHT22;4524;51.364;5.448;2023-01-20T01:58:07;2.50;1.00
8979;DHT22;4524;51.364;5.448;2023-01-20T02:00:38;2.60;1.00
8979;DHT22;4524;51.364;5.448;2023-01-20T02:03:07;2.70;1.00
8979;DHT22;4524;51.364;5.448;2023-01-20T02:05:36;2.60;1.00
8979;DHT22;4524;51.364;5.448;2023-01-20T02:08:06;2.70;1.00
8979;DHT22;4524;51.364;5.448;2023-01-20T02:10:34;2.70;1.00
8979;DHT22;4524;51.364;5.448;2023-01-20T02:13:03;2.70;99.90
8979;DHT22;4524;51.364;5.448;2023-01-20T02:15:37;2.70;1.00
8979;DHT22;4524;51.364;5.448;2023-01-20T02:18:18;2.70;1.00
8979;DHT22;4524;51.364;5.448;2023-01-20T02:24:06;2.70;1.00
8979;DHT22;4524;51.364;5.448;2023-01-20T02:26:52;2.80;1.00
8979;DHT22;4524;51.364;5.448;2023-01-20T02:29:48;2.70;99.90
8979;DHT22;4524;51.364;5.448;2023-01-20T02:32:35;2.80;99.90
8979;DHT22;4524;51.364;5.448;2023-01-20T02:35:08;2.80;99.90
8979;DHT22;4524;51.364;5.448;2023-01-20T02:37:45;2.70;1.00
8979;DHT22;4524;51.364;5.448;2023-01-20T02:40:23;2.70;99.90
8979;DHT22;4524;51.364;5.448;2023-01-20T02:43:00;2.70;1.00
8979;DHT22;4524;51.364;5.448;2023-01-20T02:45:34;2.70;99.90
8979;DHT22;4524;51.364;5.448;2023-01-20T02:48:11;2.70;99.90
8979;DHT22;4524;51.364;5.448;2023-01-20T02:50:46;2.70;99.90
8979;DHT22;4524;51.364;5.448;2023-01-20T02:53:15;2.80;99.90
8979;DHT22;4524;51.364;5.448;2023-01-20T02:55:46;2.80;99.90
8979;DHT22;4524;51.364;5.448;2023-01-20T02:58:18;2.80;99.90
8979;DHT22;4524;51.364;5.448;2023-01-20T03:00:52;2.80;99.90
8979;DHT22;4524;51.364;5.448;2023-01-20T03:03:27;2.70;99.90
8979;DHT22;4524;51.364;5.448;2023-01-20T03:05:59;2.70;99.90
8979;DHT22;4524;51.364;5.448;2023-01-20T03:08:30;2.70;99.90
8979;DHT22;4524;51.364;5.448;2023-01-20T03:11:03;2.80;99.90
8979;DHT22;4524;51.364;5.448;2023-01-20T03:13:34;2.80;99.90
8979;DHT22;4524;51.364;5.448;2023-01-20T03:16:06;2.80;99.90
8979;DHT22;4524;51.364;5.448;2023-01-20T03:18:37;2.80;99.90
8979;DHT22;4524;51.364;5.448;2023-01-20T03:21:07;2.80;99.90
8979;DHT22;4524;51.364;5.448;2023-01-20T03:23:38;2.90;99.90
8979;DHT22;4524;51.364;5.448;2023-01-20T03:26:09;2.80;99.90
8979;DHT22;4524;51.364;5.448;2023-01-20T03:28:39;2.90;99.90
8979;DHT22;4524;51.364;5.448;2023-01-20T03:31:13;2.90;99.90
8979;DHT22;4524;51.364;5.448;2023-01-20T03:33:44;2.80;99.90
8979;DHT22;4524;51.364;5.448;2023-01-20T03:36:13;2.80;99.90
8979;DHT22;4524;51.364;5.448;2023-01-20T03:38:43;2.80;99.90
8979;DHT22;4524;51.364;5.448;2023-01-20T03:41:16;2.80;99.90
8979;DHT22;4524;51.364;5.448;2023-01-20T03:43:56;2.70;99.90
8979;DHT22;4524;51.364;5.448;2023-01-20T03:46:31;2.70;99.90
8979;DHT22;4524;51.364;5.448;2023-01-20T03:49:06;2.80;99.90
8979;DHT22;4524;51.364;5.448;2023-01-20T03:51:45;2.80;99.90
8979;DHT22;4524;51.364;5.448;2023-01-20T03:54:21;2.80;99.90
8979;DHT22;4524;51.364;5.448;2023-01-20T03:56:55;2.90;99.90
8979;DHT22;4524;51.364;5.448;2023-01-20T03:59:33;2.90;99.90
8979;DHT22;4524;51.364;5.448;2023-01-20T04:02:02;2.80;99.90
8979;DHT22;4524;51.364;5.448;2023-01-20T04:04:36;2.80;99.90
8979;DHT22;4524;51.364;5.448;2023-01-20T04:07:05;2.80;99.90
8979;DHT22;4524;51.364;5.448;2023-01-20T04:09:36;2.90;99.90
8979;DHT22;4524;51.364;5.448;2023-01-20T04:12:05;2.90;99.90
8979;DHT22;4524;51.364;5.448;2023-01-20T04:14:34;2.90;99.90
8979;DHT22;4524;51.364;5.448;2023-01-20T04:17:03;2.90;99.90
8979;DHT22;4524;51.364;5.448;2023-01-20T04:19:34;2.90;99.90
8979;DHT22;4524;51.364;5.448;2023-01-20T04:22:05;2.80;99.90
8979;DHT22;4524;51.364;5.448;2023-01-20T04:24:39;2.80;99.90
8979;DHT22;4524;51.364;5.448;2023-01-20T04:27:08;2.80;99.90
8979;DHT22;4524;51.364;5.448;2023-01-20T04:29:36;2.90;99.90
8979;DHT22;4524;51.364;5.448;2023-01-20T04:32:04;2.90;99.90
8979;DHT22;4524;51.364;5.448;2023-01-20T04:34:34;2.80;99.90
8979;DHT22;4524;51.364;5.448;2023-01-20T04:37:02;2.90;99.90
8979;DHT22;4524;51.364;5.448;2023-01-20T04:39:30;2.70;99.90
8979;DHT22;4524;51.364;5.448;2023-01-20T04:41:58;2.80;99.90
8979;DHT22;4524;51.364;5.448;2023-01-20T04:44:26;2.90;99.90
8979;DHT22;4524;51.364;5.448;2023-01-20T04:46:55;2.90;99.90
8979;DHT22;4524;51.364;5.448;2023-01-20T04:49:23;2.90;99.90
8979;DHT22;4524;51.364;5.448;2023-01-20T04:51:53;2.90;99.90
8979;DHT22;4524;51.364;5.448;2023-01-20T04:54:21;2.90;99.90
8979;DHT22;4524;51.364;5.448;2023-01-20T04:56:49;2.90;99.90
8979;DHT22;4524;51.364;5.448;2023-01-20T04:59:17;2.90;99.90
8979;DHT22;4524;51.364;5.448;2023-01-20T05:01:46;2.80;99.90
8979;DHT22;4524;51.364;5.448;2023-01-20T05:04:14;2.70;99.90
8979;DHT22;4524;51.364;5.448;2023-01-20T05:06:42;2.80;99.90
8979;DHT22;4524;51.364;5.448;2023-01-20T05:09:13;2.80;99.90
8979;DHT22;4524;51.364;5.448;2023-01-20T05:11:42;2.90;99.90
8979;DHT22;4524;51.364;5.448;2023-01-20T05:14:11;2.90;99.90
8979;DHT22;4524;51.364;5.448;2023-01-20T05:16:39;2.90;99.90
8979;DHT22;4524;51.364;5.448;2023-01-20T05:19:07;2.90;99.90
8979;DHT22;4524;51.364;5.448;2023-01-20T05:21:35;2.90;99.90
8979;DHT22;4524;51.364;5.448;2023-01-20T05:24:03;2.90;99.90
8979;DHT22;4524;51.364;5.448;2023-01-20T05:26:33;2.90;99.90
8979;DHT22;4524;51.364;5.448;2023-01-20T05:29:01;2.80;99.90
8979;DHT22;4524;51.364;5.448;2023-01-20T05:31:29;2.80;99.90
8979;DHT22;4524;51.364;5.448;2023-01-20T05:33:58;2.70;99.90
8979;DHT22;4524;51.364;5.448;2023-01-20T05:36:26;2.70;99.90
8979;DHT22;4524;51.364;5.448;2023-01-20T05:38:55;2.70;99.90
8979;DHT22;4524;51.364;5.448;2023-01-20T05:41:23;2.80;99.90
8979;DHT22;4524;51.364;5.448;2023-01-20T05:43:53;2.60;99.90
8979;DHT22;4524;51.364;5.448;2023-01-20T05:46:21;2.70;99.90
8979;DHT22;4524;51.364;5.448;2023-01-20T05:48:49;2.70;99.90
8979;DHT22;4524;51.364;5.448;2023-01-20T05:51:18;2.70;99.90
8979;DHT22;4524;51.364;5.448;2023-01-20T05:53:46;2.70;99.90
8979;DHT22;4524;51.364;5.448;2023-01-20T05:56:14;2.70;99.90
8979;DHT22;4524;51.364;5.448;2023-01-20T05:58:42;2.70;99.90
8979;DHT22;4524;51.364;5.448;2023-01-20T06:01:12;2.70;99.90
8979;DHT22;4524;51.364;5.448;2023-01-20T06:03:41;2.70;99.90
8979;DHT22;4524;51.364;5.448;2023-01-20T06:06:10;2.70;99.90
8979;DHT22;4524;51.364;5.448;2023-01-20T06:08:41;2.70;99.90
8979;DHT22;4524;51.364;5.448;2023-01-20T06:11:09;2.80;99.90
8979;DHT22;4524;51.364;5.448;2023-01-20T06:13:37;2.90;99.90
8979;DHT22;4524;51.364;5.448;2023-01-20T06:16:06;2.70;99.90
8979;DHT22;4524;51.364;5.448;2023-01-20T06:18:36;2.80;99.90
8979;DHT22;4524;51.364;5.448;2023-01-20T06:21:04;2.70;99.90
8979;DHT22;4524;51.364;5.448;2023-01-20T06:23:32;2.80;99.90
8979;DHT22;4524;51.364;5.448;2023-01-20T06:26:02;2.70;99.90
8979;DHT22;4524;51.364;5.448;2023-01-20T06:28:31;2.80;99.90
8979;DHT22;4524;51.364;5.448;2023-01-20T06:31:00;2.80;1.00
8979;DHT22;4524;51.364;5.448;2023-01-20T06:33:29;2.70;99.90
8979;DHT22;4524;51.364;5.448;2023-01-20T06:35:59;2.70;1.00
8979;DHT22;4524;51.364;5.448;2023-01-20T06:38:29;2.80;20.60
8979;DHT22;4524;51.364;5.448;2023-01-20T06:40:57;2.80;1.00
8979;DHT22;4524;51.364;5.448;2023-01-20T06:43:27;2.70;99.90
8979;DHT22;4524;51.364;5.448;2023-01-20T06:45:59;2.80;99.90
8979;DHT22;4524;51.364;5.448;2023-01-20T06:48:27;2.80;99.90
8979;DHT22;4524;51.364;5.448;2023-01-20T06:51:00;2.80;99.90
8979;DHT22;4524;51.364;5.448;2023-01-20T06:53:29;2.80;99.90
8979;DHT22;4524;51.364;5.448;2023-01-20T06:55:58;2.70;99.90
8979;DHT22;4524;51.364;5.448;2023-01-20T06:58:27;2.70;99.90
8979;DHT22;4524;51.364;5.448;2023-01-20T07:00:56;2.70;99.90
8979;DHT22;4524;51.364;5.448;2023-01-20T07:03:25;2.70;1.00
8979;DHT22;4524;51.364;5.448;2023-01-20T07:05:57;2.70;1.00
8979;DHT22;4524;51.364;5.448;2023-01-20T07:08:27;2.60;99.90
8979;DHT22;4524;51.364;5.448;2023-01-20T07:10:55;2.60;1.00
8979;DHT22;4524;51.364;5.448;2023-01-20T07:13:23;2.60;1.00
8979;DHT22;4524;51.364;5.448;2023-01-20T07:15:52;2.60;1.00
8979;DHT22;4524;51.364;5.448;2023-01-20T07:18:20;2.60;1.00
8979;DHT22;4524;51.364;5.448;2023-01-20T07:20:52;2.50;1.00
8979;DHT22;4524;51.364;5.448;2023-01-20T07:23:20;2.50;1.00
8979;DHT22;4524;51.364;5.448;2023-01-20T07:25:57;2.50;1.00
8979;DHT22;4524;51.364;5.448;2023-01-20T07:28:25;2.50;1.00
8979;DHT22;4524;51.364;5.448;2023-01-20T07:30:53;2.50;1.00
8979;DHT22;4524;51.364;5.448;2023-01-20T07:33:21;2.50;1.00
8979;DHT22;4524;51.364;5.448;2023-01-20T07:35:50;2.50;1.00
8979;DHT22;4524;51.364;5.448;2023-01-20T07:38:19;2.50;1.00
8979;DHT22;4524;51.364;5.448;2023-01-20T07:40:48;2.50;1.00
8979;DHT22;4524;51.364;5.448;2023-01-20T07:43:17;2.60;1.00
8979;DHT22;4524;51.364;5.448;2023-01-20T07:45:45;2.50;1.00
8979;DHT22;4524;51.364;5.448;2023-01-20T07:48:13;2.60;1.00
8979;DHT22;4524;51.364;5.448;2023-01-20T07:50:41;2.60;1.00
8979;DHT22;4524;51.364;5.448;2023-01-20T07:53:09;2.50;1.00
8979;DHT22;4524;51.364;5.448;2023-01-20T07:55:37;2.60;1.00
8979;DHT22;4524;51.364;5.448;2023-01-20T07:58:05;2.60;1.00
8979;DHT22;4524;51.364;5.448;2023-01-20T08:00:34;2.60;1.00
8979;DHT22;4524;51.364;5.448;2023-01-20T08:03:02;2.70;1.00
8979;DHT22;4524;51.364;5.448;2023-01-20T08:05:31;2.70;1.00
8979;DHT22;4524;51.364;5.448;2023-01-20T08:07:59;2.70;1.00
8979;DHT22;4524;51.364;5.448;2023-01-20T08:10:27;2.70;1.00
8979;DHT22;4524;51.364;5.448;2023-01-20T08:12:57;2.60;1.00
8979;DHT22;4524;51.364;5.448;2023-01-20T08:15:25;2.60;1.00
8979;DHT22;4524;51.364;5.448;2023-01-20T08:17:55;2.60;1.00
8979;DHT22;4524;51.364;5.448;2023-01-20T08:20:24;2.50;1.00
8979;DHT22;4524;51.364;5.448;2023-01-20T08:22:52;2.50;1.00
8979;DHT22;4524;51.364;5.448;2023-01-20T08:25:20;2.50;1.00
8979;DHT22;4524;51.364;5.448;2023-01-20T08:27:48;2.50;3.10
8979;DHT22;4524;51.364;5.448;2023-01-20T08:30:17;2.50;48.20
8979;DHT22;4524;51.364;5.448;2023-01-20T08:32:45;2.60;70.10
8979;DHT22;4524;51.364;5.448;2023-01-20T08:35:15;2.60;27.50
8979;DHT22;4524;51.364;5.448;2023-01-20T08:37:46;2.70;1.00
8979;DHT22;4524;51.364;5.448;2023-01-20T08:40:15;2.70;1.00
8979;DHT22;4524;51.364;5.448;2023-01-20T08:42:43;2.70;1.00
8979;DHT22;4524;51.364;5.448;2023-01-20T08:45:11;2.80;1.00
8979;DHT22;4524;51.364;5.448;2023-01-20T08:47:41;2.80;1.00
8979;DHT22;4524;51.364;5.448;2023-01-20T08:50:13;2.90;1.00
8979;DHT22;4524;51.364;5.448;2023-01-20T08:52:42;2.90;1.00
8979;DHT22;4524;51.364;5.448;2023-01-20T08:55:10;2.90;1.00
8979;DHT22;4524;51.364;5.448;2023-01-20T08:57:40;2.90;1.00
8979;DHT22;4524;51.364;5.448;2023-01-20T09:00:09;2.80;1.00
8979;DHT22;4524;51.364;5.448;2023-01-20T09:02:37;2.80;1.00
8979;DHT22;4524;51.364;5.448;2023-01-20T09:05:07;2.80;99.90
8979;DHT22;4524;51.364;5.448;2023-01-20T09:07:35;2.80;99.90
8979;DHT22;4524;51.364;5.448;2023-01-20T09:10:08;2.90;99.90
8979;DHT22;4524;51.364;5.448;2023-01-20T09:12:36;2.90;99.90
8979;DHT22;4524;51.364;5.448;2023-01-20T09:15:06;2.90;99.90
8979;DHT22;4524;51.364;5.448;2023-01-20T09:17:34;2.80;99.90
8979;DHT22;4524;51.364;5.448;2023-01-20T09:20:02;2.90;99.90
8979;DHT22;4524;51.364;5.448;2023-01-20T09:22:31;2.90;99.90
8979;DHT22;4524;51.364;5.448;2023-01-20T09:24:59;2.90;99.90
8979;DHT22;4524;51.364;5.448;2023-01-20T09:27:28;3.00;99.90
8979;DHT22;4524;51.364;5.448;2023-01-20T09:29:57;2.90;1.00
8979;DHT22;4524;51.364;5.448;2023-01-20T09:32:25;2.90;1.00
8979;DHT22;4524;51.364;5.448;2023-01-20T09:34:53;2.90;1.00
8979;DHT22;4524;51.364;5.448;2023-01-20T09:37:22;2.90;1.00
8979;DHT22;4524;51.364;5.448;2023-01-20T09:40:11;2.90;1.00
8979;DHT22;4524;51.364;5.448;2023-01-20T09:43:04;3.00;1.00
8979;DHT22;4524;51.364;5.448;2023-01-20T09:45:59;3.00;1.00
8979;DHT22;4524;51.364;5.448;2023-01-20T09:48:36;2.90;1.00
8979;DHT22;4524;51.364;5.448;2023-01-20T09:51:28;2.90;1.00
8979;DHT22;4524;51.364;5.448;2023-01-20T09:54:21;2.90;1.00
8979;DHT22;4524;51.364;5.448;2023-01-20T09:56:51;2.90;1.00
8979;DHT22;4524;51.364;5.448;2023-01-20T09:59:26;2.90;1.00
8979;DHT22;4524;51.364;5.448;2023-01-20T10:02:00;2.90;1.00
8979;DHT22;4524;51.364;5.448;2023-01-20T10:04:32;2.90;1.00
8979;DHT22;4524;51.364;5.448;2023-01-20T10:07:07;2.90;1.00
8979;DHT22;4524;51.364;5.448;2023-01-20T10:09:43;2.90;1.00
8979;DHT22;4524;51.364;5.448;2023-01-20T10:12:16;2.90;1.00
8979;DHT22;4524;51.364;5.448;2023-01-20T10:14:51;2.90;1.00
8979;DHT22;4524;51.364;5.448;2023-01-20T10:17:24;3.00;1.00
8979;DHT22;4524;51.364;5.448;2023-01-20T10:19:58;3.00;1.00
8979;DHT22;4524;51.364;5.448;2023-01-20T10:22:33;3.00;99.90
8979;DHT22;4524;51.364;5.448;2023-01-20T10:25:08;3.10;1.00
8979;DHT22;4524;51.364;5.448;2023-01-20T10:27:44;3.10;99.90
8979;DHT22;4524;51.364;5.448;2023-01-20T10:30:18;3.10;99.90
8979;DHT22;4524;51.364;5.448;2023-01-20T10:32:53;3.10;99.90
8979;DHT22;4524;51.364;5.448;2023-01-20T10:35:25;3.10;99.90
8979;DHT22;4524;51.364;5.448;2023-01-20T10:37:55;3.10;99.90
8979;DHT22;4524;51.364;5.448;2023-01-20T10:40:33;3.10;99.90
8979;DHT22;4524;51.364;5.448;2023-01-20T10:43:09;3.20;99.90
8979;DHT22;4524;51.364;5.448;2023-01-20T10:45:57;3.20;99.90
8979;DHT22;4524;51.364;5.448;2023-01-20T10:48:42;3.20;99.90
8979;DHT22;4524;51.364;5.448;2023-01-20T10:51:16;3.30;99.90
8979;DHT22;4524;51.364;5.448;2023-01-20T10:53:50;3.20;99.90
8979;DHT22;4524;51.364;5.448;2023-01-20T10:56:31;3.30;99.90
8979;DHT22;4524;51.364;5.448;2023-01-20T10:59:04;3.30;99.90
8979;DHT22;4524;51.364;5.448;2023-01-20T11:01:36;3.30;99.90
8979;DHT22;4524;51.364;5.448;2023-01-20T11:04:04;3.30;99.90
8979;DHT22;4524;51.364;5.448;2023-01-20T11:06:32;3.30;99.90
8979;DHT22;4524;51.364;5.448;2023-01-20T11:09:15;3.30;99.90
8979;DHT22;4524;51.364;5.448;2023-01-20T11:11:46;3.40;99.90
8979;DHT22;4524;51.364;5.448;2023-01-20T11:14:14;3.40;99.90
8979;DHT22;4524;51.364;5.448;2023-01-20T11:16:44;3.40;99.90
8979;DHT22;4524;51.364;5.448;2023-01-20T11:19:14;3.40;99.90
8979;DHT22;4524;51.364;5.448;2023-01-20T11:21:42;3.50;99.90
8979;DHT22;4524;51.364;5.448;2023-01-20T11:24:31;3.50;99.90
8979;DHT22;4524;51.364;5.448;2023-01-20T11:27:03;3.60;99.90
8979;DHT22;4524;51.364;5.448;2023-01-20T11:29:37;3.60;99.90
8979;DHT22;4524;51.364;5.448;2023-01-20T11:35:20;3.70;1.00
8979;DHT22;4524;51.364;5.448;2023-01-20T11:37:48;3.70;1.00
8979;DHT22;4524;51.364;5.448;2023-01-20T11:40:19;3.70;99.90
8979;DHT22;4524;51.364;5.448;2023-01-20T11:42:49;3.70;99.90
8979;DHT22;4524;51.364;5.448;2023-01-20T11:45:27;3.70;99.90
8979;DHT22;4524;51.364;5.448;2023-01-20T11:48:05;3.80;99.90
8979;DHT22;4524;51.364;5.448;2023-01-20T11:50:39;3.80;99.90
8979;DHT22;4524;51.364;5.448;2023-01-20T11:53:16;3.80;99.90
8979;DHT22;4524;51.364;5.448;2023-01-20T11:55:48;3.90;99.90
8979;DHT22;4524;51.364;5.448;2023-01-20T11:58:18;3.90;99.90
8979;DHT22;4524;51.364;5.448;2023-01-20T12:00:49;3.90;99.90
8979;DHT22;4524;51.364;5.448;2023-01-20T12:06:40;3.90;99.90
8979;DHT22;4524;51.364;5.448;2023-01-20T12:09:11;4.00;99.90
8979;DHT22;4524;51.364;5.448;2023-01-20T12:11:51;4.00;99.90
8979;DHT22;4524;51.364;5.448;2023-01-20T12:14:23;4.10;99.90
8979;DHT22;4524;51.364;5.448;2023-01-20T12:17:05;4.00;99.90
8979;DHT22;4524;51.364;5.448;2023-01-20T12:19:47;4.10;99.90
8979;DHT22;4524;51.364;5.448;2023-01-20T12:22:24;4.20;99.90
8979;DHT22;4524;51.364;5.448;2023-01-20T12:24:57;4.30;99.90
8979;DHT22;4524;51.364;5.448;2023-01-20T12:27:45;4.30;1.00
8979;DHT22;4524;51.364;5.448;2023-01-20T12:30:33;4.40;94.60
8979;DHT22;4524;51.364;5.448;2023-01-20T12:33:03;4.50;99.90
8979;DHT22;4524;51.364;5.448;2023-01-20T12:35:37;4.60;99.90
8979;DHT22;4524;51.364;5.448;2023-01-20T12:38:10;4.60;99.90
8979;DHT22;4524;51.364;5.448;2023-01-20T12:40:42;4.70;99.90
8979;DHT22;4524;51.364;5.448;2023-01-20T12:43:30;4.80;99.90
8979;DHT22;4524;51.364;5.448;2023-01-20T12:46:17;4.90;99.50
8979;DHT22;4524;51.364;5.448;2023-01-20T12:48:55;4.80;97.90
8979;DHT22;4524;51.364;5.448;2023-01-20T12:51:33;4.70;99.20
8979;DHT22;4524;51.364;5.448;2023-01-20T12:54:38;4.80;99.90
8979;DHT22;4524;51.364;5.448;2023-01-20T12:57:24;4.80;98.40
8979;DHT22;4524;51.364;5.448;2023-01-20T13:00:12;5.00;98.10
8979;DHT22;4524;51.364;5.448;2023-01-20T13:03:02;5.10;95.90
8979;DHT22;4524;51.364;5.448;2023-01-20T13:06:02;5.10;97.50
8979;DHT22;4524;51.364;5.448;2023-01-20T13:08:40;5.00;97.10
8979;DHT22;4524;51.364;5.448;2023-01-20T13:11:18;4.80;99.90
8979;DHT22;4524;51.364;5.448;2023-01-20T13:14:01;4.50;99.90
8979;DHT22;4524;51.364;5.448;2023-01-20T13:16:34;4.30;99.90
8979;DHT22;4524;51.364;5.448;2023-01-20T13:19:11;4.20;99.90
8979;DHT22;4524;51.364;5.448;2023-01-20T13:21:40;4.20;99.90
8979;DHT22;4524;51.364;5.448;2023-01-20T13:24:14;4.40;99.90
8979;DHT22;4524;51.364;5.448;2023-01-20T13:26:47;4.30;99.90
8979;DHT22;4524;51.364;5.448;2023-01-20T13:29:20;4.20;99.90
8979;DHT22;4524;51.364;5.448;2023-01-20T13:31:50;4.20;99.90
8979;DHT22;4524;51.364;5.448;2023-01-20T13:34:31;4.20;99.90
8979;DHT22;4524;51.364;5.448;2023-01-20T13:37:34;4.20;99.90
8979;DHT22;4524;51.364;5.448;2023-01-20T13:42:49;4.20;99.90
8979;DHT22;4524;51.364;5.448;2023-01-20T13:45:23;4.10;99.90
8979;DHT22;4524;51.364;5.448;2023-01-20T13:48:00;4.10;99.90
8979;DHT22;4524;51.364;5.448;2023-01-20T13:50:30;4.10;99.90
8979;DHT22;4524;51.364;5.448;2023-01-20T13:53:24;4.10;99.90
8979;DHT22;4524;51.364;5.448;2023-01-20T13:56:24;4.10;99.90
8979;DHT22;4524;51.364;5.448;2023-01-20T13:58:54;4.10;99.90
8979;DHT22;4524;51.364;5.448;2023-01-20T14:01:24;4.10;99.90
8979;DHT22;4524;51.364;5.448;2023-01-20T14:04:13;4.00;99.90
8979;DHT22;4524;51.364;5.448;2023-01-20T14:06:44;4.00;99.90
8979;DHT22;4524;51.364;5.448;2023-01-20T14:09:18;4.10;99.90
8979;DHT22;4524;51.364;5.448;2023-01-20T14:11:50;4.10;99.90
8979;DHT22;4524;51.364;5.448;2023-01-20T14:14:22;4.10;99.90
8979;DHT22;4524;51.364;5.448;2023-01-20T14:16:51;4.00;99.90
8979;DHT22;4524;51.364;5.448;2023-01-20T14:19:21;4.10;99.90
8979;DHT22;4524;51.364;5.448;2023-01-20T14:21:53;4.00;99.90
8979;DHT22;4524;51.364;5.448;2023-01-20T14:24:25;4.00;99.90
8979;DHT22;4524;51.364;5.448;2023-01-20T14:27:05;4.10;99.90
8979;DHT22;4524;51.364;5.448;2023-01-20T14:29:34;4.00;99.90
8979;DHT22;4524;51.364;5.448;2023-01-20T14:32:16;4.00;99.90
8979;DHT22;4524;51.364;5.448;2023-01-20T14:34:48;4.00;99.90
8979;DHT22;4524;51.364;5.448;2023-01-20T14:37:24;3.90;99.90
8979;DHT22;4524;51.364;5.448;2023-01-20T14:39:53;3.80;99.90
8979;DHT22;4524;51.364;5.448;2023-01-20T14:42:23;3.80;99.90
8979;DHT22;4524;51.364;5.448;2023-01-20T14:44:54;3.80;99.90
8979;DHT22;4524;51.364;5.448;2023-01-20T14:47:24;3.90;99.90
8979;DHT22;4524;51.364;5.448;2023-01-20T14:49:53;3.90;99.90
8979;DHT22;4524;51.364;5.448;2023-01-20T14:52:25;3.90;99.90
8979;DHT22;4524;51.364;5.448;2023-01-20T14:54:54;4.00;99.90
8979;DHT22;4524;51.364;5.448;2023-01-20T14:57:25;3.90;99.90
8979;DHT22;4524;51.364;5.448;2023-01-20T15:00:13;3.90;99.90
8979;DHT22;4524;51.364;5.448;2023-01-20T15:02:46;3.90;99.90
8979;DHT22;4524;51.364;5.448;2023-01-20T15:05:36;3.80;99.90
8979;DHT22;4524;51.364;5.448;2023-01-20T15:08:15;3.80;99.90
8979;DHT22;4524;51.364;5.448;2023-01-20T15:11:17;3.70;99.90
8979;DHT22;4524;51.364;5.448;2023-01-20T15:14:07;3.70;99.90
8979;DHT22;4524;51.364;5.448;2023-01-20T15:16:44;3.70;99.90
8979;DHT22;4524;51.364;5.448;2023-01-20T15:19:29;3.70;99.90
8979;DHT22;4524;51.364;5.448;2023-01-20T15:22:21;3.80;99.90
8979;DHT22;4524;51.364;5.448;2023-01-20T15:24:50;3.80;99.90
8979;DHT22;4524;51.364;5.448;2023-01-20T15:27:21;3.80;99.90
8979;DHT22;4524;51.364;5.448;2023-01-20T15:30:11;3.80;99.90
8979;DHT22;4524;51.364;5.448;2023-01-20T15:32:41;3.70;99.90
8979;DHT22;4524;51.364;5.448;2023-01-20T15:35:11;3.80;99.90
8979;DHT22;4524;51.364;5.448;2023-01-20T15:37:40;3.80;99.90
8979;DHT22;4524;51.364;5.448;2023-01-20T15:40:14;3.70;99.90
8979;DHT22;4524;51.364;5.448;2023-01-20T15:42:42;3.70;99.90
8979;DHT22;4524;51.364;5.448;2023-01-20T15:45:11;3.80;99.90
8979;DHT22;4524;51.364;5.448;2023-01-20T15:47:42;3.70;99.90
8979;DHT22;4524;51.364;5.448;2023-01-20T15:50:15;3.70;99.90
8979;DHT22;4524;51.364;5.448;2023-01-20T15:52:44;3.70;99.90
8979;DHT22;4524;51.364;5.448;2023-01-20T15:55:13;3.60;99.90
8979;DHT22;4524;51.364;5.448;2023-01-20T15:57:42;3.70;99.90
8979;DHT22;4524;51.364;5.448;2023-01-20T16:00:15;3.60;99.90
8979;DHT22;4524;51.364;5.448;2023-01-20T16:02:45;3.60;99.90
8979;DHT22;4524;51.364;5.448;2023-01-20T16:05:13;3.50;99.90
8979;DHT22;4524;51.364;5.448;2023-01-20T16:07:44;3.60;99.90
8979;DHT22;4524;51.364;5.448;2023-01-20T16:10:15;3.60;99.90
8979;DHT22;4524;51.364;5.448;2023-01-20T16:12:44;3.60;99.90
8979;DHT22;4524;51.364;5.448;2023-01-20T16:15:13;3.60;99.90
8979;DHT22;4524;51.364;5.448;2023-01-20T16:17:42;3.50;99.90
8979;DHT22;4524;51.364;5.448;2023-01-20T16:20:17;3.50;99.90
8979;DHT22;4524;51.364;5.448;2023-01-20T16:22:46;3.50;99.90
8979;DHT22;4524;51.364;5.448;2023-01-20T16:25:14;3.40;99.90
8979;DHT22;4524;51.364;5.448;2023-01-20T16:27:42;3.50;99.90
8979;DHT22;4524;51.364;5.448;2023-01-20T16:30:14;3.40;99.90
8979;DHT22;4524;51.364;5.448;2023-01-20T16:32:43;3.50;99.90
8979;DHT22;4524;51.364;5.448;2023-01-20T16:35:12;3.40;99.90
8979;DHT22;4524;51.364;5.448;2023-01-20T16:37:43;3.40;99.90
8979;DHT22;4524;51.364;5.448;2023-01-20T16:40:13;3.30;99.90
8979;DHT22;4524;51.364;5.448;2023-01-20T16:42:42;3.30;99.90
8979;DHT22;4524;51.364;5.448;2023-01-20T16:45:20;3.20;99.90
8979;DHT22;4524;51.364;5.448;2023-01-20T16:47:48;3.20;99.90
8979;DHT22;4524;51.364;5.448;2023-01-20T16:50:16;3.20;99.90
8979;DHT22;4524;51.364;5.448;2023-01-20T16:52:46;3.20;99.90
8979;DHT22;4524;51.364;5.448;2023-01-20T16:55:14;3.20;99.90
8979;DHT22;4524;51.364;5.448;2023-01-20T16:57:42;3.20;99.90
8979;DHT22;4524;51.364;5.448;2023-01-20T17:00:11;3.20;99.90
8979;DHT22;4524;51.364;5.448;2023-01-20T17:02:42;3.20;99.90
8979;DHT22;4524;51.364;5.448;2023-01-20T17:05:11;3.20;99.90
8979;DHT22;4524;51.364;5.448;2023-01-20T17:07:39;3.20;99.90